Santa Barbara, California
Current Conditions -  °F | °C
As of 1:53 PM on Friday 24 Oct 2014 (Local Time) from KSBA Reporting Station
Clear Clear  
Wind Chill: 77°   Ceiling: Unl
Heat Index: 79°   Visibility: 10mi
Dew Point: 56°   Wind: 8mph
Humidity: 48%   Direction: 170°S
Pressure: 29.94"   Gusts: NA
Location:  34.42°N, 119.69°W
Report Text: KSBA 242053Z 17007KT 10SM R07/1800VP6000FT CLR 25/13 A2994 RMK AO2 SLP139 T02500133 58016
Loading
Personal Weather Stations






























Interactive Weather Map New forecast layout! Learn more

10-Day Weather Forecast

Advertisements
Track Severe Weather on mobile